Aérodrome :
LOGIN :

S'inscrire | Disclaimer

   EN    FR    IT 

 










Légende :    VFR   VFR Marginal   IFR   IFR Intensif   IFR Très Intensif
Visi : 
Plafond : 
>= 8 km
>= 3000ft
5 à 8 km
1000 à 3000 ft
1500m à 5 km
500 à 1000 ft
800 à 1500m
200 à 500 ft
< 800m
< 200 ft
Symboles :   Orages  Brouillard  Fortes neiges  Fortes précipitations  Vent > 20 kt
SIGMETs :   Divers  Orages  Givrage  Turbulence  Onde Orograph.  Cendres Volcan.







- Altitude de l'aérodrome : 245 ft


ETHS - Fassberg

DERNIER METAR :
  • 251120Z 33010KT 9999 SCT010 BKN020 04/03 Q1015 WHT BLU TEMPO YLO

METARs EXPIRÉS :
  • 251103Z 32010KT 9000 FEW007 BKN015 04/02 Q1015 WHT BLU TEMPO YLO
  • 251020Z 30012KT 7000 -SHRA FEW007 SCT012TCU BKN020 04/02 Q1014 WHT BLU TEMPO YLO
  • 251013Z 30011KT 8000 -SHRA FEW008 SCT012TCU BKN030 04/02 Q1014 BLU BLU TEMPO YLO
  • 250920Z 28010KT 9999 FEW008 BKN012 04/02 Q1014 GRN BLU TEMPO YLO

TAF TAF ETHS
Valide du 25 à 12h jusqu'au 25 à 21h UTC


251119Z 2512/2521 29008KT 9999 NSW FEW010 BKN030
TEMPO 2512/2518 30012G25KT 3000 SHRA SCT007 BKN012CB
PROB30 2512/2517 31015G28KT 2000 TSGS SCT005 BKN010CB
Pas de NOTAMs connus pour ce terrain.



MET'MAP, la Météo Aéronautique d'un coup d'oeil ! - Copyright ORBIFLY Décembre 2007 - Disclaimer

ORBIFLY MET'MAP TEAM :

Programmation & Développement : Alexandra Zaïnal
Conception & Développement : Baudouin d'Aumeries
Co-Programmation & Développement : Marc-Olivier Méhu
Soutien technique & logistique : Manuel Goepfert

Contact : metmap@orbifly.com




SOURCES & CREDITS :

   NOAA